Terminal Aerodrome Forecast
Issued by NWS Upton, NY

Home | Current Version | Previous Version | Text Only | Print | Product List | Glossary On
Versions: 1 2 3 4 5 6 7 8 9 10 11 12 13 14 15 16 17 18 19 20 21 22 23 24 25 26 27 28 29 30 31 32 33
812
FTUS41 KOKX 270603 AAA
TAFJFK
TAF AMD
KJFK 270603Z 2706/2812 22007KT P6SM BKN100
     FM270700 30010KT P6SM BKN100
      TEMPO 2708/2711 -SHRA BKN050
     FM271400 19008KT P6SM BKN070
     FM271800 19012KT P6SM SCT060 BKN100
     FM272300 26015KT P6SM FEW060 SCT100
     FM280200 29011KT P6SM FEW050
     FM280800 31008KT P6SM FEW050=

USA.gov is the U.S. government's official web portal to all federal, state and local government web resources and services.